Time;durP1;ratioP1;P1;durP2;ratioP2;P2;SDS_P1;SDS_P2;PMS_P1;PMS_P2;Temp;Humidity;BMP_temperature;BMP_pressure;BME280_temperature;BME280_humidity;BME280_pressure;Samples;Min_cycle;Max_cycle;Signal;HPM_P1;HPM_P2
2023/07/12 00:00:58;;;;;;;;;;;;;;;25.69;44.94;100265.50;5449838;32;34655;-77
2023/07/12 00:04:00;;;;;;;;;;;;;;;25.67;45.43;100275.59;5438090;32;35887;-78
2023/07/12 00:07:03;;;;;;;;;;;;;;;25.98;44.60;100273.25;5449206;32;34785;-76
2023/07/12 00:10:22;;;;;;;;;;;;;;;26.19;44.11;100272.81;5467284;32;35396;-77
2023/07/12 00:13:24;;;;;;;;;;;;;;;25.74;45.30;100270.44;5448073;32;35557;-76
2023/07/12 00:16:33;;;;;;;;;;;;;;;26.04;44.75;100269.06;5451151;32;35151;-77
2023/07/12 00:19:36;;;;;;;;;;;;;;;25.73;45.74;100263.38;5436736;32;35200;-80
2023/07/12 00:22:38;;;;;;;;;;;;;;;25.90;44.79;100268.69;5447594;32;34960;-76
2023/07/12 00:25:40;;;;;;;;;;;;;;;26.03;44.72;100256.63;5466196;32;35562;-77
2023/07/12 00:28:42;;;;;;;;;;;;;;;25.31;46.61;100269.47;5462646;32;34442;-78
2023/07/12 00:31:44;;;;;;;;;;;;;;;25.58;46.29;100284.63;5453698;32;34405;-77
2023/07/12 00:34:46;;;;;;;;;;;;;;;25.63;46.08;100287.66;5464437;32;34464;-79
2023/07/12 00:37:49;;;;;;;;;;;;;;;25.92;45.36;100290.06;5451267;32;33851;-78
2023/07/12 00:41:10;;;;;;;;;;;;;;;25.95;45.62;100272.72;5448375;32;35110;-78
2023/07/12 00:44:39;;;;;;;;;;;;;;;25.28;47.38;100281.41;5447172;32;35630;-79
2023/07/12 00:47:41;;;;;;;;;;;;;;;25.22;47.72;100270.44;5462273;32;35305;-77
2023/07/12 00:50:43;;;;;;;;;;;;;;;25.81;46.09;100260.72;5460324;32;35582;-78
2023/07/12 00:53:45;;;;;;;;;;;;;;;25.35;46.40;100265.47;5451123;32;35956;-77
2023/07/12 00:56:47;;;;;;;;;;;;;;;24.95;47.15;100269.53;5448234;32;35541;-78
2023/07/12 00:59:50;;;;;;;;;;;;;;;24.93;46.55;100266.16;5446748;32;34075;-77
2023/07/12 01:02:52;;;;;;;;;;;;;;;24.93;46.74;100263.47;5464124;32;34991;-77
2023/07/12 01:05:54;;;;;;;;;;;;;;;25.14;45.96;100268.53;5447436;32;34817;-77
2023/07/12 01:08:57;;;;;;;;;;;;;;;25.27;45.67;100271.66;5455974;32;36056;-77
2023/07/12 01:11:59;;;;;;;;;;;;;;;25.00;46.41;100255.62;5445045;32;35247;-77
2023/07/12 01:15:02;;;;;;;;;;;;;;;24.69;47.35;100250.66;5434459;32;37637;-79
2023/07/12 01:18:04;;;;;;;;;;;;;;;24.97;46.93;100247.84;5446497;32;34617;-76
2023/07/12 01:21:11;;;;;;;;;;;;;;;24.92;47.14;100247.47;5446469;32;35194;-78
2023/07/12 01:24:13;;;;;;;;;;;;;;;25.31;45.92;100245.25;5465544;32;34753;-77
2023/07/12 01:27:17;;;;;;;;;;;;;;;24.90;47.03;100239.56;5449269;32;34208;-77
2023/07/12 01:30:19;;;;;;;;;;;;;;;24.53;48.11;100235.22;5450563;32;34543;-77
2023/07/12 01:33:21;;;;;;;;;;;;;;;24.88;47.47;100238.06;5449766;32;34690;-77
2023/07/12 01:36:24;;;;;;;;;;;;;;;24.84;47.78;100232.12;5465364;32;35353;-78
2023/07/12 01:39:26;;;;;;;;;;;;;;;24.42;48.88;100232.78;5439647;32;35545;-76
2023/07/12 01:42:28;;;;;;;;;;;;;;;24.56;48.43;100231.38;5463707;32;34762;-77
2023/07/12 01:45:30;;;;;;;;;;;;;;;24.72;47.95;100236.91;5466981;32;34299;-76
2023/07/12 01:48:32;;;;;;;;;;;;;;;25.48;46.16;100247.06;5460495;32;35894;-78
2023/07/12 01:51:34;;;;;;;;;;;;;;;25.39;46.02;100243.50;5468815;32;34651;-78
2023/07/12 01:54:36;;;;;;;;;;;;;;;25.14;46.60;100238.94;5438623;32;35256;-76
2023/07/12 01:57:38;;;;;;;;;;;;;;;24.78;47.04;100240.81;5450070;32;35692;-76
2023/07/12 02:00:40;;;;;;;;;;;;;;;23.87;49.46;100254.25;5451906;32;34659;-78
2023/07/12 02:03:42;;;;;;;;;;;;;;;23.95;49.55;100259.72;5464229;32;36123;-77
2023/07/12 02:06:44;;;;;;;;;;;;;;;24.70;47.81;100251.50;5440864;32;34697;-76
2023/07/12 02:10:07;;;;;;;;;;;;;;;23.96;49.74;100253.38;5449010;32;35803;-76
2023/07/12 02:13:09;;;;;;;;;;;;;;;24.90;47.06;100252.16;5439075;32;35016;-76
2023/07/12 02:16:11;;;;;;;;;;;;;;;23.89;49.17;100257.63;5439195;32;34676;-77
2023/07/12 02:19:13;;;;;;;;;;;;;;;24.42;47.96;100250.72;5450465;32;34254;-77
2023/07/12 02:22:15;;;;;;;;;;;;;;;24.09;48.53;100246.78;5456144;32;34487;-77
2023/07/12 02:25:18;;;;;;;;;;;;;;;24.16;48.52;100237.16;5463267;32;35381;-77
2023/07/12 02:28:21;;;;;;;;;;;;;;;24.35;48.02;100238.91;5459041;32;34137;-78
2023/07/12 02:31:24;;;;;;;;;;;;;;;24.38;47.67;100227.84;5463021;32;35456;-76
2023/07/12 02:34:27;;;;;;;;;;;;;;;24.01;48.95;100239.50;5438095;32;34640;-77
2023/07/12 02:37:30;;;;;;;;;;;;;;;23.84;49.21;100221.53;5449811;32;34889;-78
2023/07/12 02:40:33;;;;;;;;;;;;;;;24.42;47.88;100211.28;5465641;32;35071;-78
2023/07/12 02:43:35;;;;;;;;;;;;;;;24.18;48.51;100205.63;5467774;32;34033;-78
2023/07/12 02:46:38;;;;;;;;;;;;;;;24.00;48.93;100210.97;5452396;32;33125;-77
2023/07/12 02:49:40;;;;;;;;;;;;;;;24.36;47.79;100213.75;5449425;32;34631;-76
2023/07/12 02:52:42;;;;;;;;;;;;;;;24.42;47.49;100213.13;5447327;32;34775;-77
2023/07/12 02:55:48;;;;;;;;;;;;;;;24.61;46.94;100217.50;5452759;32;34211;-77
2023/07/12 02:58:50;;;;;;;;;;;;;;;24.14;47.96;100210.44;5464779;32;35054;-79
2023/07/12 03:01:52;;;;;;;;;;;;;;;24.63;46.92;100210.97;5438660;32;35625;-77
2023/07/12 03:04:55;;;;;;;;;;;;;;;24.35;47.52;100209.38;5438947;32;33869;-77
2023/07/12 03:07:57;;;;;;;;;;;;;;;24.24;48.03;100203.19;5450309;32;34807;-77
2023/07/12 03:10:59;;;;;;;;;;;;;;;23.75;49.37;100210.66;5467072;32;35542;-77
2023/07/12 03:14:01;;;;;;;;;;;;;;;23.94;48.83;100195.47;5445740;32;34498;-77
2023/07/12 03:17:05;;;;;;;;;;;;;;;24.72;46.90;100191.22;5464056;32;34313;-76
2023/07/12 03:20:08;;;;;;;;;;;;;;;24.34;47.69;100203.13;5440159;32;34661;-78
2023/07/12 03:23:10;;;;;;;;;;;;;;;24.14;48.49;100202.38;5435890;32;35089;-78
2023/07/12 03:26:12;;;;;;;;;;;;;;;25.37;45.30;100197.09;5469879;32;34815;-79
2023/07/12 03:29:14;;;;;;;;;;;;;;;24.84;46.33;100207.94;5434433;32;35320;-77
2023/07/12 03:32:16;;;;;;;;;;;;;;;24.45;47.04;100210.13;5466058;32;34634;-76
2023/07/12 03:35:18;;;;;;;;;;;;;;;24.17;48.08;100212.84;5447432;32;34723;-78
2023/07/12 03:38:20;;;;;;;;;;;;;;;24.97;46.13;100207.53;5464201;32;35689;-77
2023/07/12 03:41:22;;;;;;;;;;;;;;;24.71;46.67;100220.94;5452602;32;34308;-77
2023/07/12 03:44:24;;;;;;;;;;;;;;;24.18;48.05;100224.41;5463517;32;34405;-78
2023/07/12 03:47:26;;;;;;;;;;;;;;;24.31;47.65;100215.00;5446330;32;35061;-79
2023/07/12 03:50:28;;;;;;;;;;;;;;;24.52;47.26;100211.19;5448261;32;34691;-78
2023/07/12 03:53:30;;;;;;;;;;;;;;;24.81;46.80;100217.16;5465805;32;35180;-77
2023/07/12 03:56:32;;;;;;;;;;;;;;;25.04;46.09;100204.09;5461299;32;35814;-77
2023/07/12 03:59:34;;;;;;;;;;;;;;;24.89;46.59;100218.22;5437703;32;34939;-77
2023/07/12 04:02:36;;;;;;;;;;;;;;;25.12;45.83;100220.28;5449900;32;35572;-77
2023/07/12 04:05:39;;;;;;;;;;;;;;;25.54;45.20;100213.28;5447513;32;34718;-77
2023/07/12 04:08:41;;;;;;;;;;;;;;;25.00;46.46;100220.69;5471026;32;35226;-77
2023/07/12 04:11:43;;;;;;;;;;;;;;;25.50;45.41;100207.38;5447435;32;34991;-77
2023/07/12 04:14:45;;;;;;;;;;;;;;;24.98;46.55;100219.97;5464986;32;34472;-76
2023/07/12 04:17:47;;;;;;;;;;;;;;;25.81;45.19;100236.50;5460860;32;34959;-78
2023/07/12 04:20:53;;;;;;;;;;;;;;;25.48;45.57;100235.47;5462487;32;34462;-77
2023/07/12 04:23:55;;;;;;;;;;;;;;;25.24;46.10;100234.28;5465578;32;35333;-78
2023/07/12 04:26:59;;;;;;;;;;;;;;;25.51;45.69;100225.22;5433500;32;35302;-78
2023/07/12 04:30:01;;;;;;;;;;;;;;;25.47;45.97;100217.63;5438855;32;35353;-76
2023/07/12 04:33:03;;;;;;;;;;;;;;;25.34;45.99;100232.34;5461746;32;34353;-77
2023/07/12 04:36:06;;;;;;;;;;;;;;;25.70;44.95;100213.37;5451476;32;34302;-79
2023/07/12 04:39:08;;;;;;;;;;;;;;;25.49;44.85;100200.31;5447844;32;34952;-79
2023/07/12 04:42:11;;;;;;;;;;;;;;;26.28;43.32;100166.78;5448349;32;34071;-78
2023/07/12 04:45:13;;;;;;;;;;;;;;;25.77;44.28;100190.22;5449663;32;34602;-77
2023/07/12 04:48:15;;;;;;;;;;;;;;;25.64;45.04;100209.50;5456856;32;34411;-79
2023/07/12 04:51:17;;;;;;;;;;;;;;;25.47;45.35;100186.19;5450683;32;35603;-77
2023/07/12 04:54:19;;;;;;;;;;;;;;;24.99;46.56;100186.69;5467325;32;34754;-77
2023/07/12 04:57:21;;;;;;;;;;;;;;;26.02;44.11;100192.97;5436721;32;35280;-77
2023/07/12 05:00:23;;;;;;;;;;;;;;;26.63;43.40;100205.25;5438268;32;34813;-80
2023/07/12 05:03:26;;;;;;;;;;;;;;;26.07;44.23;100202.25;5449493;32;35070;-78
2023/07/12 05:06:28;;;;;;;;;;;;;;;25.70;45.06;100208.00;5467643;32;35487;-79
2023/07/12 05:09:30;;;;;;;;;;;;;;;24.57;47.94;100206.22;5449609;32;34724;-79
2023/07/12 05:12:33;;;;;;;;;;;;;;;24.83;47.49;100212.47;5467792;32;34216;-77
2023/07/12 05:15:35;;;;;;;;;;;;;;;25.97;44.88;100215.03;5462669;32;35618;-78
2023/07/12 05:18:37;;;;;;;;;;;;;;;25.49;45.71;100199.47;5441020;32;34387;-78
2023/07/12 05:21:39;;;;;;;;;;;;;;;25.36;45.99;100208.81;5455439;32;35213;-77
2023/07/12 05:24:41;;;;;;;;;;;;;;;24.64;47.99;100228.78;5463470;32;34708;-77
2023/07/12 05:27:43;;;;;;;;;;;;;;;25.58;45.82;100215.50;5468300;32;35795;-78
2023/07/12 05:30:45;;;;;;;;;;;;;;;25.43;46.31;100208.19;5447951;32;34229;-78
2023/07/12 05:33:47;;;;;;;;;;;;;;;25.93;45.23;100192.13;5455488;32;35226;-77
2023/07/12 05:36:49;;;;;;;;;;;;;;;26.27;44.75;100200.09;5445487;32;34257;-75
2023/07/12 05:39:51;;;;;;;;;;;;;;;27.04;42.35;100197.13;5464867;32;35461;-74
2023/07/12 05:42:53;;;;;;;;;;;;;;;25.79;45.42;100200.81;5461408;32;35372;-75
2023/07/12 05:45:58;;;;;;;;;;;;;;;26.93;42.64;100193.78;5463107;32;34929;-72
2023/07/12 05:49:00;;;;;;;;;;;;;;;27.35;42.03;100189.16;5463463;32;34503;-74
2023/07/12 05:52:05;;;;;;;;;;;;;;;28.09;40.31;100193.25;5460780;32;34834;-69
2023/07/12 05:55:08;;;;;;;;;;;;;;;27.71;40.44;100193.13;5451625;32;34668;-70
2023/07/12 05:58:11;;;;;;;;;;;;;;;27.93;40.01;100191.47;5445208;32;34194;-73
2023/07/12 06:01:13;;;;;;;;;;;;;;;29.10;38.22;100211.09;5462729;32;35251;-75
2023/07/12 06:04:15;;;;;;;;;;;;;;;29.87;36.19;100200.75;5461229;32;34210;-75
2023/07/12 06:07:26;;;;;;;;;;;;;;;29.20;37.70;100197.31;5453440;32;34162;-76
2023/07/12 06:10:37;;;;;;;;;;;;;;;28.59;38.55;100200.84;5448456;32;36001;-70
2023/07/12 06:13:57;;;;;;;;;;;;;;;29.83;36.31;100177.81;5460955;32;35395;-74
2023/07/12 06:17:14;;;;;;;;;;;;;;;28.73;38.07;100183.03;5462141;32;32945;-73
2023/07/12 06:20:37;;;;;;;;;;;;;;;28.63;38.42;100171.59;5454193;32;34749;-69
2023/07/12 06:23:59;;;;;;;;;;;;;;;28.98;37.68;100156.63;5455699;32;36448;-69
2023/07/12 06:27:13;;;;;;;;;;;;;;;29.49;36.74;100140.44;5459417;32;34485;-76
2023/07/12 06:30:40;;;;;;;;;;;;;;;31.06;34.01;100133.31;5453681;32;35550;-72
2023/07/12 06:34:07;;;;;;;;;;;;;;;30.30;34.99;100130.38;5464085;32;34636;-78
2023/07/12 06:37:34;;;;;;;;;;;;;;;31.35;32.90;100118.66;5462838;32;34803;-66
2023/07/12 06:40:57;;;;;;;;;;;;;;;31.19;33.83;100119.00;5456181;32;33203;-70
2023/07/12 06:44:24;;;;;;;;;;;;;;;;;;;;;
2023/07/12 06:47:38;;;;;;;;;;;;;;;32.32;32.49;100126.50;5457224;32;34255;-77
2023/07/12 06:50:50;;;;;;;;;;;;;;;31.62;33.49;100129.63;5459761;32;34262;-75
2023/07/12 06:54:11;;;;;;;;;;;;;;;30.62;35.36;100126.28;5449442;32;36360;-76
2023/07/12 06:57:33;;;;;;;;;;;;;;;29.82;36.32;100123.78;5449852;32;35038;-67
2023/07/12 07:01:05;;;;;;;;;;;;;;;30.91;35.04;100127.12;5438028;32;35185;-80
2023/07/12 07:04:23;;;;;;;;;;;;;;;31.61;33.66;100122.53;5441705;32;34569;-75
2023/07/12 07:07:38;;;;;;;;;;;;;;;32.02;31.46;100127.94;5429638;32;936475;-73
2023/07/12 07:10:46;;;;;;;;;;;;;;;32.79;30.29;100135.56;5456604;32;34131;-70
2023/07/12 07:13:59;;;;;;;;;;;;;;;32.01;31.76;100126.25;5461067;32;38053;-90
2023/07/12 07:17:23;;;;;;;;;;;;;;;32.18;31.51;100108.50;5451267;32;36203;-72
2023/07/12 07:20:44;;;;;;;;;;;;;;;31.25;32.50;100102.75;5448708;32;36914;-74
2023/07/12 07:24:08;;;;;;;;;;;;;;;33.32;30.11;100089.16;5458969;32;33985;-73
2023/07/12 07:27:25;;;;;;;;;;;;;;;31.05;33.36;100088.22;5460177;32;34193;-75
2023/07/12 07:30:31;;;;;;;;;;;;;;;32.26;31.58;100080.28;5448191;32;36382;-68
2023/07/12 07:33:47;;;;;;;;;;;;;;;33.29;30.10;100061.50;5448804;32;37633;-74
2023/07/12 07:37:11;;;;;;;;;;;;;;;33.35;29.60;100050.59;5460243;32;33665;-70
2023/07/12 07:40:19;;;;;;;;;;;;;;;33.53;29.49;100043.63;5457193;32;34233;-71
2023/07/12 07:43:31;;;;;;;;;;;;;;;34.36;28.47;100040.75;5462973;32;34168;-73
2023/07/12 07:46:45;;;;;;;;;;;;;;;34.63;28.17;100038.62;5457926;32;36377;-71
2023/07/12 07:49:58;;;;;;;;;;;;;;;35.43;27.05;100025.78;5459325;32;34954;-74
2023/07/12 07:53:11;;;;;;;;;;;;;;;34.06;28.85;100018.75;5461320;32;36681;-75
2023/07/12 07:56:38;;;;;;;;;;;;;;;36.12;26.14;100018.00;5466748;32;36916;-77
2023/07/12 07:59:45;;;;;;;;;;;;;;;34.31;28.82;100008.69;5448271;32;33219;-73
2023/07/12 08:02:54;;;;;;;;;;;;;;;34.93;28.02;100003.28;5458482;32;35636;-81
2023/07/12 08:06:09;;;;;;;;;;;;;;;36.77;25.42;100004.22;5460873;32;35870;-74
2023/07/12 08:09:14;;;;;;;;;;;;;;;36.61;25.41;100005.78;5450656;32;34394;-74
2023/07/12 08:12:22;;;;;;;;;;;;;;;37.25;24.82;99988.53;5458235;32;35860;-75
2023/07/12 08:15:39;;;;;;;;;;;;;;;34.70;28.30;99985.66;5453770;32;35017;-73
2023/07/12 08:18:42;;;;;;;;;;;;;;;38.89;22.85;99977.25;5456654;32;35435;-75
2023/07/12 08:21:47;;;;;;;;;;;;;;;36.22;26.35;99981.88;5441541;32;34980;-78
2023/07/12 08:24:49;;;;;;;;;;;;;;;36.43;26.24;99975.81;5452888;32;34568;-71
2023/07/12 08:27:51;;;;;;;;;;;;;;;37.32;25.37;99965.38;5453478;32;34412;-72
2023/07/12 08:30:53;;;;;;;;;;;;;;;35.71;27.46;99956.81;5455295;32;34258;-74
2023/07/12 08:33:56;;;;;;;;;;;;;;;36.07;27.25;99958.56;5464284;32;34232;-74
2023/07/12 08:36:58;;;;;;;;;;;;;;;36.86;26.22;99953.53;5447326;32;33607;-73
2023/07/12 08:40:00;;;;;;;;;;;;;;;36.28;26.90;99954.41;5433664;32;34222;-75
2023/07/12 08:43:04;;;;;;;;;;;;;;;37.99;24.78;99950.13;5456034;32;34947;-71
2023/07/12 08:46:08;;;;;;;;;;;;;;;34.64;29.67;99966.62;5439829;32;34095;-73
2023/07/12 08:49:10;;;;;;;;;;;;;;;35.39;28.78;99958.97;5445932;32;36293;-75
2023/07/12 08:52:15;;;;;;;;;;;;;;;36.39;27.31;99969.19;5461293;32;34501;-78
2023/07/12 08:55:18;;;;;;;;;;;;;;;35.59;28.75;99975.09;5462966;32;35777;-75
2023/07/12 08:58:22;;;;;;;;;;;;;;;34.26;30.70;99981.25;5417578;32;35338;-78
2023/07/12 09:01:44;;;;;;;;;;;;;;;35.61;29.01;99967.47;5436097;32;34671;-77
2023/07/12 09:04:46;;;;;;;;;;;;;;;37.10;26.69;99967.97;5457740;32;34840;-77
2023/07/12 09:07:53;;;;;;;;;;;;;;;35.59;28.81;99985.19;5438273;32;35027;-76
2023/07/12 09:10:56;;;;;;;;;;;;;;;37.67;25.89;99975.34;5441772;32;34148;-73
2023/07/12 09:13:58;;;;;;;;;;;;;;;34.95;30.03;99985.59;5441713;32;35024;-73
2023/07/12 09:17:00;;;;;;;;;;;;;;;35.68;28.62;99989.25;5444559;32;33700;-74
2023/07/12 09:20:03;;;;;;;;;;;;;;;38.08;25.87;99982.38;5429568;32;34897;-74
2023/07/12 09:23:05;;;;;;;;;;;;;;;37.18;26.47;99988.66;5441542;32;35038;-78
2023/07/12 09:26:12;;;;;;;;;;;;;;;36.91;27.24;99988.41;5438797;32;34304;-71
2023/07/12 09:29:15;;;;;;;;;;;;;;;38.07;25.35;99974.41;5452769;32;35474;-78
2023/07/12 09:32:18;;;;;;;;;;;;;;;38.10;25.64;99968.41;5452272;32;35162;-72
2023/07/12 09:35:27;;;;;;;;;;;;;;;38.42;25.14;99985.94;5453364;32;34237;-72
2023/07/12 09:38:29;;;;;;;;;;;;;;;37.49;26.22;99981.91;5457869;32;35664;-75
2023/07/12 09:41:31;;;;;;;;;;;;;;;37.04;26.80;99998.25;5442827;32;37477;-81
2023/07/12 09:44:33;;;;;;;;;;;;;;;39.61;23.63;99995.44;5451030;32;34749;-73
2023/07/12 09:47:41;;;;;;;;;;;;;;;38.18;25.13;100006.37;5449362;32;33489;-71
2023/07/12 09:50:46;;;;;;;;;;;;;;;39.00;24.26;100014.75;5456156;32;35668;-74
2023/07/12 09:53:49;;;;;;;;;;;;;;;36.67;27.04;100023.16;5439978;32;34395;-75
2023/07/12 09:56:53;;;;;;;;;;;;;;;38.10;25.37;100007.66;5431851;32;34486;-69
2023/07/12 10:00:00;;;;;;;;;;;;;;;36.70;27.12;100005.41;5460631;32;36370;-72
2023/07/12 10:03:07;;;;;;;;;;;;;;;37.20;26.85;100002.94;5436633;32;34152;-69
2023/07/12 10:06:20;;;;;;;;;;;;;;;38.97;24.47;99995.22;5436961;32;34109;-68
2023/07/12 10:09:24;;;;;;;;;;;;;;;37.27;26.55;99998.16;5434539;32;35896;-71
2023/07/12 10:12:44;;;;;;;;;;;;;;;37.31;26.78;99984.81;5453314;32;35651;-73
2023/07/12 10:15:46;;;;;;;;;;;;;;;36.55;27.45;99987.59;5460021;32;34359;-74
2023/07/12 10:18:48;;;;;;;;;;;;;;;37.14;27.12;99987.47;5465797;32;35603;-77
2023/07/12 10:21:51;;;;;;;;;;;;;;;38.79;24.60;99985.37;5465251;32;34280;-74
2023/07/12 10:24:53;;;;;;;;;;;;;;;40.28;22.59;99983.06;5453840;32;36329;-77
2023/07/12 10:27:58;;;;;;;;;;;;;;;37.50;26.00;99980.81;5441158;32;34294;-77
2023/07/12 10:31:07;;;;;;;;;;;;;;;37.68;26.00;99971.53;5458778;32;34409;-74
2023/07/12 10:34:29;;;;;;;;;;;;;;;39.69;23.42;99964.69;5454087;32;35796;-69
2023/07/12 10:37:37;;;;;;;;;;;;;;;39.00;24.31;99957.06;5443966;32;35260;-80
2023/07/12 10:40:44;;;;;;;;;;;;;;;40.50;22.43;99958.16;5444111;32;34159;-77
2023/07/12 10:43:47;;;;;;;;;;;;;;;38.86;24.37;99961.28;5442304;32;34187;-85
2023/07/12 10:46:57;;;;;;;;;;;;;;;38.18;25.53;99954.25;5430696;32;33092;-83
2023/07/12 10:50:04;;;;;;;;;;;;;;;39.29;23.99;99943.13;5455074;32;35435;-70
2023/07/12 10:53:26;;;;;;;;;;;;;;;38.42;25.12;99949.41;5446852;32;35500;-73
2023/07/12 10:56:33;;;;;;;;;;;;;;;38.35;25.72;99948.78;5439746;32;34109;-75
2023/07/12 10:59:36;;;;;;;;;;;;;;;38.78;24.82;99939.78;5459662;32;45916;-70
2023/07/12 11:02:45;;;;;;;;;;;;;;;39.50;23.66;99936.72;5457578;32;35270;-71
2023/07/12 11:06:07;;;;;;;;;;;;;;;37.40;26.39;99932.13;5447694;32;34238;-78
2023/07/12 11:09:09;;;;;;;;;;;;;;;39.40;24.09;99931.13;5440581;32;34841;-72
2023/07/12 11:12:12;;;;;;;;;;;;;;;37.66;26.11;99933.37;5438713;32;35198;-74
2023/07/12 11:15:19;;;;;;;;;;;;;;;37.75;26.37;99935.75;5437896;32;35310;-70
2023/07/12 11:18:25;;;;;;;;;;;;;;;40.82;22.71;99939.56;5425291;32;34750;-74
2023/07/12 11:21:47;;;;;;;;;;;;;;;39.07;24.61;99945.03;5437407;32;34814;-69
2023/07/12 11:24:53;;;;;;;;;;;;;;;39.59;24.17;99947.22;5458233;32;35411;-75
2023/07/12 11:27:59;;;;;;;;;;;;;;;39.76;23.85;99953.47;5458423;32;35547;-74
2023/07/12 11:31:20;;;;;;;;;;;;;;;41.13;22.27;99945.19;5453661;32;33262;-74
2023/07/12 11:34:23;;;;;;;;;;;;;;;38.50;25.25;99946.22;5441839;32;34291;-76
2023/07/12 11:37:41;;;;;;;;;;;;;;;40.14;23.32;99955.16;5449887;32;35945;-78
2023/07/12 11:40:51;;;;;;;;;;;;;;;39.52;24.20;99948.28;5457583;32;35118;-84
2023/07/12 11:44:00;;;;;;;;;;;;;;;39.78;23.62;99957.59;5461376;32;33862;-72
2023/07/12 11:47:02;;;;;;;;;;;;;;;42.19;21.00;99960.22;5443743;32;36369;-75
2023/07/12 11:50:04;;;;;;;;;;;;;;;41.81;21.56;99945.88;5461390;32;34882;-80
2023/07/12 11:53:06;;;;;;;;;;;;;;;39.79;24.01;99952.94;5433582;32;35234;-79
2023/07/12 11:56:12;;;;;;;;;;;;;;;39.23;24.85;99947.72;5445550;32;34233;-70
2023/07/12 11:59:15;;;;;;;;;;;;;;;39.96;24.16;99942.63;5444333;32;35583;-73
2023/07/12 12:02:18;;;;;;;;;;;;;;;41.04;23.16;99938.56;5456334;32;35419;-73
2023/07/12 12:05:24;;;;;;;;;;;;;;;40.53;23.67;99946.59;5453664;32;34485;-74
2023/07/12 12:08:27;;;;;;;;;;;;;;;41.39;22.43;99940.59;5447955;32;33959;-71
2023/07/12 12:11:29;;;;;;;;;;;;;;;38.72;26.05;99938.06;5442758;32;34490;-76
2023/07/12 12:14:31;;;;;;;;;;;;;;;41.15;23.43;99940.22;5442301;32;34298;-84
2023/07/12 12:17:35;;;;;;;;;;;;;;;40.28;24.73;99948.09;5452897;32;34101;-73
2023/07/12 12:20:38;;;;;;;;;;;;;;;39.20;26.55;99944.66;5457828;32;34621;-86
2023/07/12 12:23:41;;;;;;;;;;;;;;;38.53;27.25;99948.47;5440146;32;34205;-72
2023/07/12 12:26:44;;;;;;;;;;;;;;;38.61;27.00;99949.94;5433124;32;35995;-73
2023/07/12 12:29:46;;;;;;;;;;;;;;;37.38;27.97;99942.50;5428264;32;33664;-80
2023/07/12 12:33:14;;;;;;;;;;;;;;;37.74;27.47;99939.53;5433629;32;34353;-79
2023/07/12 12:36:21;;;;;;;;;;;;;;;36.78;29.22;99939.37;5450797;32;35896;-81
2023/07/12 12:39:23;;;;;;;;;;;;;;;37.12;28.56;99943.91;5461719;32;34524;-73
2023/07/12 12:42:26;;;;;;;;;;;;;;;36.98;28.96;99949.94;5453942;32;34347;-72
2023/07/12 12:45:36;;;;;;;;;;;;;;;37.34;28.50;99932.28;5440269;32;33243;-75
2023/07/12 12:48:38;;;;;;;;;;;;;;;36.79;28.55;99941.84;5439204;32;33929;-75
2023/07/12 12:51:44;;;;;;;;;;;;;;;37.11;27.50;99934.03;5443917;32;33614;-84
2023/07/12 12:54:50;;;;;;;;;;;;;;;36.31;29.00;99931.19;5446202;32;34005;-74
2023/07/12 12:58:00;;;;;;;;;;;;;;;35.81;30.09;99924.28;5444107;32;34048;-72
2023/07/12 13:01:05;;;;;;;;;;;;;;;36.00;29.24;99922.31;5456733;32;35510;-74
2023/07/12 13:04:12;;;;;;;;;;;;;;;35.71;29.72;99920.44;5456707;32;34165;-73
2023/07/12 13:07:27;;;;;;;;;;;;;;;36.53;29.50;99915.84;5452420;32;36214;-77
2023/07/12 13:10:48;;;;;;;;;;;;;;;35.59;30.62;99927.78;5438624;32;35437;-78
2023/07/12 13:13:53;;;;;;;;;;;;;;;36.71;28.21;99912.13;5444853;32;35992;-87
2023/07/12 13:16:58;;;;;;;;;;;;;;;35.50;29.43;99914.47;5456298;32;35121;-85
2023/07/12 13:20:03;;;;;;;;;;;;;;;35.15;30.37;99918.97;5445106;32;34773;-76
2023/07/12 13:23:08;;;;;;;;;;;;;;;35.17;30.69;99916.84;5452333;32;34403;-75
2023/07/12 13:26:11;;;;;;;;;;;;;;;35.24;30.96;99904.75;5440076;32;34417;-79
2023/07/12 13:29:16;;;;;;;;;;;;;;;35.72;30.18;99900.25;5458009;32;35385;-81
2023/07/12 13:32:19;;;;;;;;;;;;;;;35.31;31.12;99901.94;5457774;32;35363;-74
2023/07/12 13:35:22;;;;;;;;;;;;;;;35.83;30.15;99898.59;5463487;32;34366;-81
2023/07/12 13:38:27;;;;;;;;;;;;;;;36.55;29.11;99891.81;5460262;32;35003;-75
2023/07/12 13:41:32;;;;;;;;;;;;;;;35.75;29.56;99895.16;5466425;32;33102;-76
2023/07/12 13:44:38;;;;;;;;;;;;;;;35.65;30.12;99892.16;5446073;32;33134;-77
2023/07/12 13:48:00;;;;;;;;;;;;;;;36.68;28.12;99878.91;5451882;32;34543;-73
2023/07/12 13:51:03;;;;;;;;;;;;;;;36.74;27.76;99881.50;5460597;32;33292;-74
2023/07/12 13:54:07;;;;;;;;;;;;;;;37.00;27.86;99882.03;5460271;32;34250;-80
2023/07/12 13:57:11;;;;;;;;;;;;;;;37.30;27.74;99876.28;5436167;32;37490;-71
2023/07/12 14:00:18;;;;;;;;;;;;;;;36.54;28.71;99879.19;5444359;32;34677;-80
2023/07/12 14:03:23;;;;;;;;;;;;;;;35.67;29.38;99891.91;5455214;32;35842;-69
2023/07/12 14:06:26;;;;;;;;;;;;;;;36.04;28.79;99876.97;5460238;32;35867;-75
2023/07/12 14:09:48;;;;;;;;;;;;;;;36.12;28.56;99881.25;5454301;32;34531;-71
2023/07/12 14:13:12;;;;;;;;;;;;;;;36.43;27.90;99866.38;5434535;32;35524;-71
2023/07/12 14:16:16;;;;;;;;;;;;;;;36.47;28.23;99851.13;5430871;32;34114;-78
2023/07/12 14:19:21;;;;;;;;;;;;;;;36.27;27.41;99854.25;5449011;32;34641;-77
2023/07/12 14:22:31;;;;;;;;;;;;;;;36.23;27.21;99850.31;5459670;32;35443;-71
2023/07/12 14:25:37;;;;;;;;;;;;;;;36.04;27.54;99857.00;5460301;32;34701;-75
2023/07/12 14:28:39;;;;;;;;;;;;;;;35.78;28.50;99867.31;5454963;32;36539;-69
2023/07/12 14:31:42;;;;;;;;;;;;;;;35.69;27.32;99867.94;5437295;32;36007;-71
2023/07/12 14:34:47;;;;;;;;;;;;;;;35.68;27.47;99866.25;5441796;32;34016;-72
2023/07/12 14:37:49;;;;;;;;;;;;;;;36.23;27.16;99866.72;5451332;32;34353;-81
2023/07/12 14:40:52;;;;;;;;;;;;;;;36.00;27.80;99864.00;5430026;32;35309;-72
2023/07/12 14:43:56;;;;;;;;;;;;;;;36.84;26.22;99862.56;5445873;32;36034;-79
2023/07/12 14:46:58;;;;;;;;;;;;;;;36.22;27.05;99864.25;5454659;32;34309;-80
2023/07/12 14:50:00;;;;;;;;;;;;;;;35.92;26.17;99867.94;5463727;32;34315;-76
2023/07/12 14:53:02;;;;;;;;;;;;;;;35.87;26.22;99864.22;5440726;32;34823;-79
2023/07/12 14:56:04;;;;;;;;;;;;;;;35.76;26.84;99863.19;5447631;32;35580;-72
2023/07/12 14:59:10;;;;;;;;;;;;;;;35.73;27.01;99867.19;5457333;32;34309;-72
2023/07/12 15:02:16;;;;;;;;;;;;;;;35.65;27.41;99873.03;5438386;32;34711;-71
2023/07/12 15:05:18;;;;;;;;;;;;;;;36.57;26.18;99854.06;5449025;32;34360;-71
2023/07/12 15:08:28;;;;;;;;;;;;;;;35.93;26.95;99855.09;5447724;32;34797;-78
2023/07/12 15:11:31;;;;;;;;;;;;;;;35.73;26.79;99844.50;5453418;32;34972;-76
2023/07/12 15:14:33;;;;;;;;;;;;;;;35.88;26.54;99842.16;5446783;32;34193;-71
2023/07/12 15:17:35;;;;;;;;;;;;;;;36.58;25.26;99830.25;5464405;32;34957;-71
2023/07/12 15:20:37;;;;;;;;;;;;;;;35.35;26.64;99829.34;5463265;32;34681;-78
2023/07/12 15:23:39;;;;;;;;;;;;;;;35.31;26.55;99833.63;5462298;32;35091;-78
2023/07/12 15:26:41;;;;;;;;;;;;;;;35.14;26.51;99830.75;5466266;32;34946;-81
2023/07/12 15:29:46;;;;;;;;;;;;;;;36.37;25.37;99826.25;5460980;32;34592;-77
2023/07/12 15:32:48;;;;;;;;;;;;;;;35.72;26.16;99832.75;5453294;32;36436;-79
2023/07/12 15:35:51;;;;;;;;;;;;;;;35.27;26.72;99840.63;5449671;32;34921;-72
2023/07/12 15:38:53;;;;;;;;;;;;;;;35.35;26.56;99837.53;5438631;32;35352;-79
2023/07/12 15:41:55;;;;;;;;;;;;;;;35.23;25.01;99842.16;5449722;32;35044;-78
2023/07/12 15:44:57;;;;;;;;;;;;;;;34.38;25.12;99845.78;5463792;32;34848;-71
2023/07/12 15:47:59;;;;;;;;;;;;;;;34.68;24.68;99845.88;5439543;32;35037;-80
2023/07/12 15:51:01;;;;;;;;;;;;;;;34.90;24.51;99864.47;5463328;32;34886;-72
2023/07/12 15:54:16;;;;;;;;;;;;;;;35.58;23.69;99863.28;5468165;32;35018;-71
2023/07/12 15:57:18;;;;;;;;;;;;;;;34.58;24.86;99869.28;5434481;32;34371;-71
2023/07/12 16:00:20;;;;;;;;;;;;;;;34.92;24.57;99876.03;5464658;32;35323;-72
2023/07/12 16:03:24;;;;;;;;;;;;;;;34.91;24.67;99877.06;5465360;32;35448;-77